createdAt,value
2017-11-22T00:00:07.861Z,46.70
2017-11-22T00:05:09.667Z,43.83
2017-11-22T00:10:11.358Z,39.67
2017-11-22T00:15:13.041Z,42.33
2017-11-22T00:20:14.771Z,41.30
2017-11-22T00:25:16.467Z,51.37
2017-11-22T00:30:18.188Z,41.97
2017-11-22T00:35:21.399Z,41.23
2017-11-22T00:40:23.233Z,47.50
2017-11-22T00:45:24.918Z,37.43
2017-11-22T00:50:26.660Z,38.07
2017-11-22T00:55:29.083Z,42.93
2017-11-22T01:00:30.814Z,43.03
2017-11-22T01:05:32.548Z,42.77
2017-11-22T01:10:34.288Z,48.23
2017-11-22T01:15:36.360Z,40.07
2017-11-22T01:20:38.796Z,36.90
2017-11-22T01:25:41.223Z,44.80
2017-11-22T01:30:43.031Z,40.93
2017-11-22T01:35:44.728Z,37.80
2017-11-22T01:40:46.439Z,35.00
2017-11-22T01:45:48.197Z,40.80
2017-11-22T01:50:50.687Z,35.43
2017-11-22T01:55:52.510Z,44.00
2017-11-22T02:00:54.241Z,40.17
2017-11-22T02:05:55.992Z,32.30
2017-11-22T02:10:57.676Z,27.40
2017-11-22T02:15:59.350Z,32.83
2017-11-22T02:21:01.017Z,35.30
2017-11-22T02:26:03.432Z,34.30
2017-11-22T02:31:05.942Z,26.80
2017-11-22T02:36:08.435Z,27.17
2017-11-22T02:41:10.165Z,34.27
2017-11-22T02:46:11.900Z,33.23
2017-11-22T02:51:13.632Z,25.70
2017-11-22T02:56:15.418Z,22.10
2017-11-22T03:01:17.175Z,24.17
2017-11-22T03:06:18.955Z,30.80
2017-11-22T03:11:21.387Z,27.03
2017-11-22T03:16:23.071Z,27.03
2017-11-22T03:21:25.504Z,24.23
2017-11-22T03:26:27.202Z,23.97
2017-11-22T03:31:28.895Z,21.50
2017-11-22T03:36:30.663Z,32.77
2017-11-22T03:41:32.441Z,21.47
2017-11-22T03:46:34.177Z,19.80
2017-11-22T03:51:42.747Z,19.07
2017-11-22T03:56:45.230Z,19.10
2017-11-22T04:01:46.943Z,18.23
2017-11-22T04:06:48.692Z,19.73
2017-11-22T04:11:50.404Z,17.63
2017-11-22T04:16:52.113Z,17.23
2017-11-22T04:21:53.843Z,18.07
2017-11-22T04:26:56.275Z,19.00
2017-11-22T04:31:58.032Z,17.20
2017-11-22T04:36:59.725Z,17.40
2017-11-22T04:42:01.459Z,17.10
2017-11-22T04:47:04.764Z,19.57
2017-11-22T04:52:07.221Z,20.50
2017-11-22T04:57:09.508Z,22.90
2017-11-22T05:02:11.598Z,24.30
2017-11-22T05:07:13.396Z,21.57
2017-11-22T05:12:15.075Z,27.90
2017-11-22T05:17:16.765Z,19.43
2017-11-22T05:22:18.450Z,21.03
2017-11-22T05:27:20.131Z,26.93
2017-11-22T05:32:21.826Z,24.63
2017-11-22T05:37:23.512Z,17.27
2017-11-22T05:42:25.958Z,24.73
2017-11-22T05:47:27.675Z,18.77
2017-11-22T05:52:29.365Z,24.10
2017-11-22T05:57:31.129Z,25.60
2017-11-22T06:02:33.571Z,24.10
2017-11-22T06:07:35.346Z,19.30
2017-11-22T06:12:37.841Z,18.23
2017-11-22T06:17:39.548Z,18.67
2017-11-22T06:22:41.270Z,21.37
2017-11-22T06:27:42.975Z,12.93
2017-11-22T06:32:44.677Z,18.17
2017-11-22T06:37:46.361Z,22.33
2017-11-22T06:42:49.044Z,18.10
2017-11-22T06:47:50.876Z,19.60
2017-11-22T06:52:53.327Z,21.90
2017-11-22T06:57:55.025Z,18.40
2017-11-22T07:03:00.668Z,21.83
2017-11-22T07:08:03.123Z,22.37
2017-11-22T07:13:04.822Z,23.03
2017-11-22T07:18:06.507Z,23.73
2017-11-22T07:23:08.248Z,17.70
2017-11-22T07:28:09.950Z,24.10
2017-11-22T07:33:11.619Z,19.93
2017-11-22T07:38:13.324Z,19.20
2017-11-22T07:43:15.012Z,21.07
2017-11-22T07:48:16.700Z,21.30
2017-11-22T07:53:18.395Z,21.27
2017-11-22T07:58:21.097Z,24.03
2017-11-22T08:03:23.543Z,18.33
2017-11-22T08:08:25.261Z,22.13
2017-11-22T08:13:26.967Z,25.20
2017-11-22T08:18:28.645Z,17.57
2017-11-22T08:23:30.356Z,18.60
2017-11-22T08:28:32.061Z,20.13
2017-11-22T08:33:33.929Z,18.13
2017-11-22T08:38:35.654Z,27.97
2017-11-22T08:43:37.384Z,17.50
2017-11-22T08:48:39.105Z,15.77
2017-11-22T08:53:40.819Z,18.93
2017-11-22T08:58:42.563Z,19.60
2017-11-22T09:03:44.291Z,15.80
2017-11-22T09:08:46.716Z,16.13
2017-11-22T09:13:48.417Z,15.03
2017-11-22T09:18:54.157Z,30.97
2017-11-22T09:23:55.895Z,25.50
2017-11-22T09:28:58.344Z,20.13
2017-11-22T09:34:06.009Z,17.13
2017-11-22T09:39:07.692Z,17.17
2017-11-22T09:44:09.375Z,23.73
2017-11-22T09:49:11.100Z,20.83
2017-11-22T09:54:12.829Z,17.30
2017-11-22T09:59:14.523Z,25.20
2017-11-22T10:04:16.222Z,20.80
2017-11-22T10:09:17.912Z,14.60
2017-11-22T10:14:19.608Z,17.97
2017-11-22T10:19:23.208Z,16.23
2017-11-22T10:24:31.000Z,18.37
2017-11-22T10:29:38.752Z,17.30
2017-11-22T10:34:41.223Z,17.60
2017-11-22T10:39:42.942Z,16.90
2017-11-22T10:44:44.671Z,14.53
2017-11-22T10:49:47.188Z,17.13
2017-11-22T10:54:49.679Z,14.77
2017-11-22T10:59:51.425Z,14.50
2017-11-22T11:04:53.195Z,17.43
2017-11-22T11:09:54.916Z,19.97
2017-11-22T11:14:56.620Z,18.77
2017-11-22T11:19:58.307Z,16.83
2017-11-22T11:24:59.982Z,14.07
2017-11-22T11:30:01.670Z,17.10
2017-11-22T11:35:03.421Z,20.30
2017-11-22T11:40:05.150Z,23.03
2017-11-22T11:45:06.871Z,21.23
2017-11-22T11:50:08.632Z,14.90
2017-11-22T11:55:10.313Z,17.43
2017-11-22T12:00:12.147Z,17.67
2017-11-22T12:05:13.883Z,18.60
2017-11-22T12:10:17.023Z,25.63
2017-11-22T12:15:18.724Z,17.37
2017-11-22T12:20:20.884Z,18.67
2017-11-22T12:25:22.661Z,20.10
2017-11-22T12:30:24.843Z,24.37
2017-11-22T12:35:26.531Z,18.40
2017-11-22T12:40:28.990Z,17.57
2017-11-22T12:45:30.658Z,19.30
2017-11-22T12:50:32.360Z,18.90
2017-11-22T12:55:34.032Z,26.17
2017-11-22T13:00:36.516Z,19.53
2017-11-22T13:05:38.263Z,19.20
2017-11-22T13:10:44.912Z,20.27
2017-11-22T13:15:46.654Z,15.53
2017-11-22T13:20:48.384Z,19.60
2017-11-22T13:25:50.121Z,18.87
2017-11-22T13:30:51.839Z,17.67
2017-11-22T13:35:53.645Z,19.37
2017-11-22T13:40:56.154Z,18.60
2017-11-22T13:46:01.190Z,21.90
2017-11-22T13:51:03.151Z,21.20
2017-11-22T13:56:05.691Z,19.97
2017-11-22T14:01:07.491Z,22.53
2017-11-22T14:06:09.319Z,17.10
2017-11-22T14:11:11.060Z,19.43
2017-11-22T14:16:12.812Z,15.77
2017-11-22T14:21:14.620Z,17.57
2017-11-22T14:26:16.488Z,12.83
2017-11-22T14:31:18.248Z,14.87
2017-11-22T14:36:20.050Z,14.80
2017-11-22T14:41:21.825Z,18.90
2017-11-22T14:46:23.645Z,16.13
2017-11-22T14:51:25.403Z,14.73
2017-11-22T14:56:27.200Z,14.00
2017-11-22T15:01:28.923Z,16.00
2017-11-22T15:06:30.783Z,18.20
2017-11-22T15:11:33.368Z,18.27
2017-11-22T15:16:35.251Z,17.43
2017-11-22T15:21:37.644Z,14.17
2017-11-22T15:26:39.432Z,20.10
2017-11-22T15:31:41.209Z,14.20
2017-11-22T15:36:42.985Z,15.37
2017-11-22T15:41:44.700Z,15.63
2017-11-22T15:46:48.059Z,15.53
2017-11-22T15:51:49.872Z,14.67
2017-11-22T15:56:51.612Z,20.10
2017-11-22T16:01:53.403Z,13.13
2017-11-22T16:06:56.046Z,11.10
2017-11-22T16:11:58.608Z,13.00
2017-11-22T16:17:00.311Z,15.50
2017-11-22T16:22:02.086Z,10.13
2017-11-22T16:27:03.880Z,9.20
2017-11-22T16:32:06.339Z,12.87
2017-11-22T16:37:08.062Z,17.17
2017-11-22T16:42:09.832Z,10.83
2017-11-22T16:47:14.987Z,19.60
2017-11-22T16:52:18.299Z,7.57
2017-11-22T16:57:20.185Z,11.17
2017-11-22T17:02:22.018Z,11.47
2017-11-22T17:07:24.550Z,30.73
2017-11-22T17:12:26.247Z,9.43
2017-11-22T17:17:28.027Z,13.20
2017-11-22T17:22:30.492Z,27.20
2017-11-22T17:27:32.266Z,19.53
2017-11-22T17:32:33.976Z,27.10
2017-11-22T17:37:35.727Z,13.40
2017-11-22T17:42:37.448Z,12.13
2017-11-22T17:47:40.074Z,15.60
2017-11-22T17:52:43.411Z,12.07
2017-11-22T17:57:45.726Z,11.07
2017-11-22T18:02:47.568Z,12.57
2017-11-22T18:07:49.464Z,15.37
2017-11-22T18:12:52.006Z,26.37
2017-11-22T18:17:56.694Z,14.73
2017-11-22T18:22:58.818Z,11.07
2017-11-22T18:28:02.090Z,13.63
2017-11-22T18:33:04.068Z,14.67
2017-11-22T18:38:07.575Z,15.40
2017-11-22T18:43:09.654Z,12.17
2017-11-22T18:48:11.456Z,14.90
2017-11-22T18:53:13.184Z,11.83
2017-11-22T18:58:14.960Z,13.53
2017-11-22T19:03:16.718Z,13.00
2017-11-22T19:08:18.540Z,12.50
2017-11-22T19:13:21.288Z,10.23
2017-11-22T19:18:23.076Z,21.27
2017-11-22T19:23:24.811Z,18.07
2017-11-22T19:28:27.317Z,12.57
2017-11-22T19:33:29.011Z,13.80
2017-11-22T19:38:32.120Z,14.57
2017-11-22T19:43:33.876Z,13.13
2017-11-22T19:48:36.325Z,13.13
2017-11-22T19:53:38.040Z,12.23
2017-11-22T19:58:39.736Z,11.87
2017-11-22T20:03:41.537Z,10.50
2017-11-22T20:08:43.226Z,11.70
2017-11-22T20:13:45.100Z,10.13
2017-11-22T20:18:46.796Z,13.37
2017-11-22T20:23:49.255Z,10.00
2017-11-22T20:28:51.557Z,14.97
2017-11-22T20:33:56.691Z,8.67
2017-11-22T20:38:58.978Z,13.20
2017-11-22T20:44:00.847Z,11.27
2017-11-22T20:49:02.606Z,8.60
2017-11-22T20:54:04.360Z,10.93
2017-11-22T20:59:06.143Z,14.57
2017-11-22T21:04:09.023Z,12.63
2017-11-22T21:09:11.432Z,10.80
2017-11-22T21:14:14.106Z,10.13
2017-11-22T21:19:15.905Z,11.53
2017-11-22T21:24:17.648Z,18.33
2017-11-22T21:29:20.070Z,8.73
2017-11-22T21:34:22.567Z,10.37
2017-11-22T21:39:24.335Z,10.73
2017-11-22T21:44:26.074Z,10.63
2017-11-22T21:49:28.538Z,10.00
2017-11-22T21:54:30.265Z,8.77
2017-11-22T21:59:31.981Z,8.07
2017-11-22T22:04:34.433Z,11.53
2017-11-22T22:09:36.247Z,7.93
2017-11-22T22:14:37.960Z,9.47
2017-11-22T22:19:39.678Z,10.43
2017-11-22T22:24:41.398Z,8.67
2017-11-22T22:29:43.073Z,7.33
2017-11-22T22:34:44.748Z,10.73
2017-11-22T22:39:46.466Z,6.50
2017-11-22T22:44:48.159Z,7.83
2017-11-22T22:49:51.028Z,11.50
2017-11-22T22:54:53.406Z,9.47
2017-11-22T22:59:56.192Z,9.13
2017-11-22T23:04:58.424Z,5.50
2017-11-22T23:10:00.390Z,5.97
2017-11-22T23:15:02.082Z,5.20
2017-11-22T23:20:04.557Z,6.37
2017-11-22T23:25:06.292Z,13.13
2017-11-22T23:30:08.714Z,8.63
2017-11-22T23:35:10.458Z,14.67
2017-11-22T23:40:12.169Z,8.40
2017-11-22T23:45:13.915Z,12.60
2017-11-22T23:50:15.621Z,5.20
2017-11-22T23:55:17.319Z,8.90
